sensor_id;sensor_type;location;lat;lon;timestamp;P1;durP1;ratioP1;P2;durP2;ratioP2
61036;SDS011;57313;47.040;15.498;2022-10-16T00:01:16;29.75;;;15.90;;
61036;SDS011;57313;47.040;15.498;2022-10-16T00:03:45;36.45;;;17.95;;
61036;SDS011;57313;47.040;15.498;2022-10-16T00:06:13;34.28;;;17.70;;
61036;SDS011;57313;47.040;15.498;2022-10-16T00:08:44;31.50;;;16.85;;
61036;SDS011;57313;47.040;15.498;2022-10-16T00:11:13;34.70;;;17.60;;
61036;SDS011;57313;47.040;15.498;2022-10-16T00:13:43;31.70;;;15.88;;
61036;SDS011;57313;47.040;15.498;2022-10-16T00:16:11;33.10;;;17.13;;
61036;SDS011;57313;47.040;15.498;2022-10-16T00:18:39;39.75;;;19.10;;
61036;SDS011;57313;47.040;15.498;2022-10-16T00:21:08;42.00;;;19.70;;
61036;SDS011;57313;47.040;15.498;2022-10-16T00:23:38;35.30;;;16.92;;
61036;SDS011;57313;47.040;15.498;2022-10-16T00:26:08;39.25;;;17.60;;
61036;SDS011;57313;47.040;15.498;2022-10-16T00:28:37;34.75;;;17.02;;
61036;SDS011;57313;47.040;15.498;2022-10-16T00:31:05;32.15;;;16.33;;
61036;SDS011;57313;47.040;15.498;2022-10-16T00:33:34;34.65;;;16.20;;
61036;SDS011;57313;47.040;15.498;2022-10-16T00:36:02;31.25;;;14.88;;
61036;SDS011;57313;47.040;15.498;2022-10-16T00:38:31;33.53;;;15.98;;
61036;SDS011;57313;47.040;15.498;2022-10-16T00:40:59;31.17;;;15.60;;
61036;SDS011;57313;47.040;15.498;2022-10-16T00:43:35;31.65;;;15.73;;
61036;SDS011;57313;47.040;15.498;2022-10-16T00:46:08;32.00;;;15.55;;
61036;SDS011;57313;47.040;15.498;2022-10-16T00:51:10;34.97;;;14.93;;
61036;SDS011;57313;47.040;15.498;2022-10-16T00:53:37;36.55;;;17.10;;
61036;SDS011;57313;47.040;15.498;2022-10-16T00:56:05;34.50;;;17.33;;
61036;SDS011;57313;47.040;15.498;2022-10-16T00:58:35;35.00;;;17.40;;
61036;SDS011;57313;47.040;15.498;2022-10-16T01:01:02;40.05;;;17.85;;
61036;SDS011;57313;47.040;15.498;2022-10-16T01:03:30;34.97;;;16.90;;
61036;SDS011;57313;47.040;15.498;2022-10-16T01:06:03;35.78;;;15.65;;
61036;SDS011;57313;47.040;15.498;2022-10-16T01:08:43;33.83;;;16.10;;
61036;SDS011;57313;47.040;15.498;2022-10-16T01:11:19;29.17;;;14.20;;
61036;SDS011;57313;47.040;15.498;2022-10-16T01:13:55;30.88;;;15.35;;
61036;SDS011;57313;47.040;15.498;2022-10-16T01:16:29;33.97;;;16.63;;
61036;SDS011;57313;47.040;15.498;2022-10-16T01:19:02;29.48;;;15.32;;
61036;SDS011;57313;47.040;15.498;2022-10-16T01:21:38;33.88;;;16.20;;
61036;SDS011;57313;47.040;15.498;2022-10-16T01:24:10;31.63;;;15.57;;
61036;SDS011;57313;47.040;15.498;2022-10-16T01:32:10;31.80;;;14.90;;
61036;SDS011;57313;47.040;15.498;2022-10-16T01:34:45;32.40;;;14.60;;
61036;SDS011;57313;47.040;15.498;2022-10-16T01:37:20;29.95;;;14.70;;
61036;SDS011;57313;47.040;15.498;2022-10-16T01:39:52;33.10;;;14.73;;
61036;SDS011;57313;47.040;15.498;2022-10-16T01:42:28;26.63;;;13.18;;
61036;SDS011;57313;47.040;15.498;2022-10-16T01:44:58;33.25;;;15.27;;
61036;SDS011;57313;47.040;15.498;2022-10-16T01:47:27;29.52;;;14.13;;
61036;SDS011;57313;47.040;15.498;2022-10-16T01:49:57;24.48;;;12.88;;
61036;SDS011;57313;47.040;15.498;2022-10-16T01:52:28;33.10;;;15.15;;
61036;SDS011;57313;47.040;15.498;2022-10-16T01:54:56;30.40;;;14.63;;
61036;SDS011;57313;47.040;15.498;2022-10-16T01:57:28;28.50;;;14.00;;
61036;SDS011;57313;47.040;15.498;2022-10-16T01:59:59;28.80;;;13.57;;
61036;SDS011;57313;47.040;15.498;2022-10-16T02:02:30;26.40;;;13.23;;
61036;SDS011;57313;47.040;15.498;2022-10-16T02:04:58;26.20;;;13.75;;
61036;SDS011;57313;47.040;15.498;2022-10-16T02:07:31;30.15;;;14.77;;
61036;SDS011;57313;47.040;15.498;2022-10-16T02:09:59;28.30;;;14.60;;
61036;SDS011;57313;47.040;15.498;2022-10-16T02:12:31;31.98;;;14.98;;
61036;SDS011;57313;47.040;15.498;2022-10-16T02:15:03;25.23;;;13.13;;
61036;SDS011;57313;47.040;15.498;2022-10-16T02:17:31;29.70;;;15.15;;
61036;SDS011;57313;47.040;15.498;2022-10-16T02:19:58;30.02;;;12.77;;
61036;SDS011;57313;47.040;15.498;2022-10-16T02:22:27;32.20;;;13.32;;
61036;SDS011;57313;47.040;15.498;2022-10-16T02:24:59;25.77;;;12.93;;
61036;SDS011;57313;47.040;15.498;2022-10-16T02:27:34;27.95;;;13.10;;
61036;SDS011;57313;47.040;15.498;2022-10-16T02:30:08;26.67;;;13.23;;
61036;SDS011;57313;47.040;15.498;2022-10-16T02:32:42;30.40;;;13.88;;
61036;SDS011;57313;47.040;15.498;2022-10-16T02:35:11;29.17;;;13.57;;
61036;SDS011;57313;47.040;15.498;2022-10-16T02:37:40;30.70;;;13.07;;
61036;SDS011;57313;47.040;15.498;2022-10-16T02:40:10;29.13;;;13.20;;
61036;SDS011;57313;47.040;15.498;2022-10-16T02:42:40;30.45;;;13.63;;
61036;SDS011;57313;47.040;15.498;2022-10-16T02:45:08;26.23;;;13.38;;
61036;SDS011;57313;47.040;15.498;2022-10-16T02:47:37;30.13;;;15.07;;
61036;SDS011;57313;47.040;15.498;2022-10-16T02:50:05;30.00;;;14.45;;
61036;SDS011;57313;47.040;15.498;2022-10-16T02:52:33;29.88;;;14.90;;
61036;SDS011;57313;47.040;15.498;2022-10-16T02:55:02;28.90;;;14.15;;
61036;SDS011;57313;47.040;15.498;2022-10-16T02:57:30;33.15;;;13.95;;
61036;SDS011;57313;47.040;15.498;2022-10-16T02:59:59;29.85;;;15.02;;
61036;SDS011;57313;47.040;15.498;2022-10-16T03:02:27;37.00;;;15.88;;
61036;SDS011;57313;47.040;15.498;2022-10-16T03:04:54;30.33;;;14.75;;
61036;SDS011;57313;47.040;15.498;2022-10-16T03:07:22;35.85;;;17.65;;
61036;SDS011;57313;47.040;15.498;2022-10-16T03:09:50;35.60;;;17.23;;
61036;SDS011;57313;47.040;15.498;2022-10-16T03:12:18;30.30;;;16.48;;
61036;SDS011;57313;47.040;15.498;2022-10-16T03:14:46;36.55;;;17.33;;
61036;SDS011;57313;47.040;15.498;2022-10-16T03:17:16;34.95;;;17.08;;
61036;SDS011;57313;47.040;15.498;2022-10-16T03:19:44;34.38;;;15.70;;
61036;SDS011;57313;47.040;15.498;2022-10-16T03:22:11;32.83;;;15.63;;
61036;SDS011;57313;47.040;15.498;2022-10-16T03:24:38;41.03;;;18.13;;
61036;SDS011;57313;47.040;15.498;2022-10-16T03:27:06;39.60;;;18.52;;
61036;SDS011;57313;47.040;15.498;2022-10-16T03:29:34;44.97;;;18.38;;
61036;SDS011;57313;47.040;15.498;2022-10-16T03:32:02;38.40;;;17.73;;
61036;SDS011;57313;47.040;15.498;2022-10-16T03:34:32;34.90;;;16.67;;
61036;SDS011;57313;47.040;15.498;2022-10-16T03:37:00;39.10;;;18.25;;
61036;SDS011;57313;47.040;15.498;2022-10-16T03:39:27;39.15;;;18.58;;
61036;SDS011;57313;47.040;15.498;2022-10-16T03:41:54;31.58;;;17.02;;
61036;SDS011;57313;47.040;15.498;2022-10-16T03:44:22;37.53;;;16.80;;
61036;SDS011;57313;47.040;15.498;2022-10-16T03:46:50;38.35;;;17.13;;
61036;SDS011;57313;47.040;15.498;2022-10-16T03:49:18;34.75;;;15.73;;
61036;SDS011;57313;47.040;15.498;2022-10-16T03:51:47;33.63;;;15.55;;
61036;SDS011;57313;47.040;15.498;2022-10-16T03:54:15;33.45;;;16.45;;
61036;SDS011;57313;47.040;15.498;2022-10-16T03:56:42;34.78;;;16.05;;
61036;SDS011;57313;47.040;15.498;2022-10-16T03:59:10;33.63;;;15.75;;
61036;SDS011;57313;47.040;15.498;2022-10-16T04:01:37;34.97;;;16.48;;
61036;SDS011;57313;47.040;15.498;2022-10-16T04:04:05;27.92;;;15.05;;
61036;SDS011;57313;47.040;15.498;2022-10-16T04:06:33;29.70;;;14.80;;
61036;SDS011;57313;47.040;15.498;2022-10-16T04:09:01;38.10;;;15.55;;
61036;SDS011;57313;47.040;15.498;2022-10-16T04:11:29;32.17;;;16.77;;
61036;SDS011;57313;47.040;15.498;2022-10-16T04:13:57;38.70;;;15.80;;
61036;SDS011;57313;47.040;15.498;2022-10-16T04:16:24;29.73;;;14.43;;
61036;SDS011;57313;47.040;15.498;2022-10-16T04:18:52;30.58;;;14.60;;
61036;SDS011;57313;47.040;15.498;2022-10-16T04:21:20;31.77;;;15.05;;
61036;SDS011;57313;47.040;15.498;2022-10-16T04:23:47;33.95;;;15.25;;
61036;SDS011;57313;47.040;15.498;2022-10-16T04:26:17;29.08;;;14.50;;
61036;SDS011;57313;47.040;15.498;2022-10-16T04:28:44;30.73;;;16.20;;
61036;SDS011;57313;47.040;15.498;2022-10-16T04:31:12;27.58;;;14.70;;
61036;SDS011;57313;47.040;15.498;2022-10-16T04:33:42;27.13;;;13.30;;
61036;SDS011;57313;47.040;15.498;2022-10-16T04:36:10;32.33;;;14.95;;
61036;SDS011;57313;47.040;15.498;2022-10-16T04:38:37;27.60;;;13.88;;
61036;SDS011;57313;47.040;15.498;2022-10-16T04:41:05;29.85;;;15.00;;
61036;SDS011;57313;47.040;15.498;2022-10-16T04:43:36;25.58;;;13.73;;
61036;SDS011;57313;47.040;15.498;2022-10-16T04:46:03;29.45;;;14.15;;
61036;SDS011;57313;47.040;15.498;2022-10-16T04:48:31;27.85;;;14.77;;
61036;SDS011;57313;47.040;15.498;2022-10-16T04:50:58;23.52;;;12.73;;
61036;SDS011;57313;47.040;15.498;2022-10-16T04:53:26;26.33;;;13.40;;
61036;SDS011;57313;47.040;15.498;2022-10-16T04:55:54;29.15;;;13.80;;
61036;SDS011;57313;47.040;15.498;2022-10-16T04:58:21;29.65;;;14.15;;
61036;SDS011;57313;47.040;15.498;2022-10-16T05:00:51;28.10;;;12.85;;
61036;SDS011;57313;47.040;15.498;2022-10-16T05:03:18;23.10;;;12.30;;
61036;SDS011;57313;47.040;15.498;2022-10-16T05:05:46;24.50;;;12.70;;
61036;SDS011;57313;47.040;15.498;2022-10-16T05:08:14;26.27;;;13.93;;
61036;SDS011;57313;47.040;15.498;2022-10-16T05:10:43;23.70;;;12.82;;
61036;SDS011;57313;47.040;15.498;2022-10-16T05:13:12;24.20;;;12.50;;
61036;SDS011;57313;47.040;15.498;2022-10-16T05:15:39;28.05;;;12.90;;
61036;SDS011;57313;47.040;15.498;2022-10-16T05:18:10;22.38;;;12.80;;
61036;SDS011;57313;47.040;15.498;2022-10-16T05:20:37;26.13;;;12.52;;
61036;SDS011;57313;47.040;15.498;2022-10-16T05:23:05;25.38;;;12.48;;
61036;SDS011;57313;47.040;15.498;2022-10-16T05:25:33;23.77;;;12.07;;
61036;SDS011;57313;47.040;15.498;2022-10-16T05:28:00;26.52;;;13.32;;
61036;SDS011;57313;47.040;15.498;2022-10-16T05:30:28;23.92;;;11.30;;
61036;SDS011;57313;47.040;15.498;2022-10-16T05:32:55;22.30;;;11.85;;
61036;SDS011;57313;47.040;15.498;2022-10-16T05:35:24;25.15;;;13.07;;
61036;SDS011;57313;47.040;15.498;2022-10-16T05:37:52;28.95;;;13.90;;
61036;SDS011;57313;47.040;15.498;2022-10-16T05:40:19;22.92;;;11.77;;
61036;SDS011;57313;47.040;15.498;2022-10-16T05:42:47;23.98;;;12.52;;
61036;SDS011;57313;47.040;15.498;2022-10-16T05:45:14;22.27;;;11.57;;
61036;SDS011;57313;47.040;15.498;2022-10-16T05:47:41;25.98;;;12.25;;
61036;SDS011;57313;47.040;15.498;2022-10-16T05:50:09;27.23;;;13.25;;
61036;SDS011;57313;47.040;15.498;2022-10-16T05:52:37;28.35;;;13.57;;
61036;SDS011;57313;47.040;15.498;2022-10-16T05:55:05;28.33;;;13.82;;
61036;SDS011;57313;47.040;15.498;2022-10-16T05:57:32;26.33;;;12.75;;
61036;SDS011;57313;47.040;15.498;2022-10-16T05:59:59;25.33;;;14.00;;
61036;SDS011;57313;47.040;15.498;2022-10-16T06:02:27;26.23;;;13.38;;
61036;SDS011;57313;47.040;15.498;2022-10-16T06:04:55;27.33;;;13.07;;
61036;SDS011;57313;47.040;15.498;2022-10-16T06:07:22;29.10;;;14.00;;
61036;SDS011;57313;47.040;15.498;2022-10-16T06:09:53;24.77;;;12.85;;
61036;SDS011;57313;47.040;15.498;2022-10-16T06:12:20;28.15;;;13.27;;
61036;SDS011;57313;47.040;15.498;2022-10-16T06:14:47;23.80;;;13.15;;
61036;SDS011;57313;47.040;15.498;2022-10-16T06:17:15;28.50;;;13.40;;
61036;SDS011;57313;47.040;15.498;2022-10-16T06:19:42;28.75;;;14.32;;
61036;SDS011;57313;47.040;15.498;2022-10-16T06:22:09;27.30;;;13.95;;
61036;SDS011;57313;47.040;15.498;2022-10-16T06:24:36;29.98;;;14.45;;
61036;SDS011;57313;47.040;15.498;2022-10-16T06:27:05;29.55;;;14.38;;
61036;SDS011;57313;47.040;15.498;2022-10-16T06:29:32;24.60;;;14.02;;
61036;SDS011;57313;47.040;15.498;2022-10-16T06:32:00;26.52;;;13.25;;
61036;SDS011;57313;47.040;15.498;2022-10-16T06:34:27;27.08;;;14.38;;
61036;SDS011;57313;47.040;15.498;2022-10-16T06:36:54;30.05;;;13.70;;
61036;SDS011;57313;47.040;15.498;2022-10-16T06:39:21;28.33;;;13.55;;
61036;SDS011;57313;47.040;15.498;2022-10-16T06:41:49;28.02;;;15.05;;
61036;SDS011;57313;47.040;15.498;2022-10-16T06:44:18;26.30;;;13.95;;
61036;SDS011;57313;47.040;15.498;2022-10-16T06:46:45;26.17;;;14.48;;
61036;SDS011;57313;47.040;15.498;2022-10-16T06:49:13;33.78;;;16.20;;
61036;SDS011;57313;47.040;15.498;2022-10-16T06:51:40;31.25;;;14.90;;
61036;SDS011;57313;47.040;15.498;2022-10-16T06:54:09;28.83;;;14.52;;
61036;SDS011;57313;47.040;15.498;2022-10-16T06:56:36;28.98;;;14.57;;
61036;SDS011;57313;47.040;15.498;2022-10-16T06:59:04;28.42;;;13.90;;
61036;SDS011;57313;47.040;15.498;2022-10-16T07:01:33;28.85;;;15.43;;
61036;SDS011;57313;47.040;15.498;2022-10-16T07:04:01;32.55;;;15.85;;
61036;SDS011;57313;47.040;15.498;2022-10-16T07:06:30;37.90;;;15.57;;
61036;SDS011;57313;47.040;15.498;2022-10-16T07:09:01;28.15;;;15.63;;
61036;SDS011;57313;47.040;15.498;2022-10-16T07:11:32;26.95;;;15.30;;
61036;SDS011;57313;47.040;15.498;2022-10-16T07:13:59;30.10;;;14.77;;
61036;SDS011;57313;47.040;15.498;2022-10-16T07:16:27;34.17;;;16.35;;
61036;SDS011;57313;47.040;15.498;2022-10-16T07:18:58;33.72;;;17.13;;
61036;SDS011;57313;47.040;15.498;2022-10-16T07:21:28;30.67;;;16.08;;
61036;SDS011;57313;47.040;15.498;2022-10-16T07:23:57;30.52;;;16.25;;
61036;SDS011;57313;47.040;15.498;2022-10-16T07:26:26;31.70;;;15.73;;
61036;SDS011;57313;47.040;15.498;2022-10-16T07:28:55;29.95;;;15.60;;
61036;SDS011;57313;47.040;15.498;2022-10-16T07:31:23;30.10;;;15.23;;
61036;SDS011;57313;47.040;15.498;2022-10-16T07:33:51;31.17;;;15.40;;
61036;SDS011;57313;47.040;15.498;2022-10-16T07:36:20;29.75;;;15.65;;
61036;SDS011;57313;47.040;15.498;2022-10-16T07:38:48;33.17;;;16.85;;
61036;SDS011;57313;47.040;15.498;2022-10-16T07:41:21;30.77;;;14.82;;
61036;SDS011;57313;47.040;15.498;2022-10-16T07:43:48;27.98;;;13.85;;
61036;SDS011;57313;47.040;15.498;2022-10-16T07:46:17;27.45;;;14.88;;
61036;SDS011;57313;47.040;15.498;2022-10-16T07:48:45;29.52;;;15.30;;
61036;SDS011;57313;47.040;15.498;2022-10-16T07:51:14;31.63;;;16.17;;
61036;SDS011;57313;47.040;15.498;2022-10-16T07:53:44;33.83;;;16.38;;
61036;SDS011;57313;47.040;15.498;2022-10-16T07:56:13;31.92;;;16.55;;
61036;SDS011;57313;47.040;15.498;2022-10-16T07:58:41;28.63;;;16.42;;
61036;SDS011;57313;47.040;15.498;2022-10-16T08:01:10;36.70;;;16.13;;
61036;SDS011;57313;47.040;15.498;2022-10-16T08:03:41;33.15;;;16.40;;
61036;SDS011;57313;47.040;15.498;2022-10-16T08:06:09;34.13;;;16.55;;
61036;SDS011;57313;47.040;15.498;2022-10-16T08:08:36;30.83;;;16.88;;
61036;SDS011;57313;47.040;15.498;2022-10-16T08:11:06;34.65;;;17.23;;
61036;SDS011;57313;47.040;15.498;2022-10-16T08:13:33;29.70;;;16.50;;
61036;SDS011;57313;47.040;15.498;2022-10-16T08:16:01;32.58;;;17.65;;
61036;SDS011;57313;47.040;15.498;2022-10-16T08:18:29;29.33;;;16.33;;
61036;SDS011;57313;47.040;15.498;2022-10-16T08:20:57;30.10;;;15.43;;
61036;SDS011;57313;47.040;15.498;2022-10-16T08:23:26;29.55;;;15.65;;
61036;SDS011;57313;47.040;15.498;2022-10-16T08:25:54;29.10;;;15.13;;
61036;SDS011;57313;47.040;15.498;2022-10-16T08:28:26;27.40;;;15.15;;
61036;SDS011;57313;47.040;15.498;2022-10-16T08:30:53;28.05;;;15.23;;
61036;SDS011;57313;47.040;15.498;2022-10-16T08:33:20;25.92;;;15.07;;
61036;SDS011;57313;47.040;15.498;2022-10-16T08:35:51;29.08;;;15.90;;
61036;SDS011;57313;47.040;15.498;2022-10-16T08:38:19;33.17;;;16.45;;
61036;SDS011;57313;47.040;15.498;2022-10-16T08:40:46;28.13;;;15.52;;
61036;SDS011;57313;47.040;15.498;2022-10-16T08:43:28;27.17;;;15.02;;
61036;SDS011;57313;47.040;15.498;2022-10-16T08:46:14;26.83;;;15.43;;
61036;SDS011;57313;47.040;15.498;2022-10-16T08:48:52;31.20;;;15.95;;
61036;SDS011;57313;47.040;15.498;2022-10-16T08:51:22;29.88;;;15.65;;
61036;SDS011;57313;47.040;15.498;2022-10-16T08:53:54;31.02;;;16.15;;
61036;SDS011;57313;47.040;15.498;2022-10-16T08:56:24;32.28;;;16.38;;
61036;SDS011;57313;47.040;15.498;2022-10-16T08:58:54;32.17;;;17.08;;
61036;SDS011;57313;47.040;15.498;2022-10-16T09:01:35;27.92;;;15.85;;
61036;SDS011;57313;47.040;15.498;2022-10-16T09:07:08;27.58;;;15.82;;
61036;SDS011;57313;47.040;15.498;2022-10-16T09:09:49;30.20;;;16.10;;
61036;SDS011;57313;47.040;15.498;2022-10-16T09:12:26;27.42;;;14.05;;
61036;SDS011;57313;47.040;15.498;2022-10-16T09:15:02;31.42;;;15.75;;
61036;SDS011;57313;47.040;15.498;2022-10-16T09:17:43;31.85;;;16.05;;
61036;SDS011;57313;47.040;15.498;2022-10-16T09:20:19;29.25;;;15.70;;
61036;SDS011;57313;47.040;15.498;2022-10-16T09:22:55;29.02;;;15.60;;
61036;SDS011;57313;47.040;15.498;2022-10-16T09:25:36;31.83;;;16.60;;
61036;SDS011;57313;47.040;15.498;2022-10-16T09:28:07;31.48;;;15.18;;
61036;SDS011;57313;47.040;15.498;2022-10-16T09:30:37;31.38;;;16.05;;
61036;SDS011;57313;47.040;15.498;2022-10-16T09:33:05;26.25;;;14.65;;
61036;SDS011;57313;47.040;15.498;2022-10-16T09:35:36;29.00;;;15.75;;
61036;SDS011;57313;47.040;15.498;2022-10-16T09:38:06;30.73;;;15.25;;
61036;SDS011;57313;47.040;15.498;2022-10-16T09:40:35;28.17;;;15.73;;
61036;SDS011;57313;47.040;15.498;2022-10-16T09:43:09;31.73;;;16.10;;
61036;SDS011;57313;47.040;15.498;2022-10-16T09:45:54;27.35;;;14.75;;
61036;SDS011;57313;47.040;15.498;2022-10-16T09:48:23;31.48;;;15.32;;
61036;SDS011;57313;47.040;15.498;2022-10-16T09:50:55;29.83;;;15.30;;
61036;SDS011;57313;47.040;15.498;2022-10-16T09:53:24;28.10;;;14.75;;
61036;SDS011;57313;47.040;15.498;2022-10-16T09:56:04;26.63;;;14.75;;
61036;SDS011;57313;47.040;15.498;2022-10-16T09:58:41;31.23;;;15.88;;
61036;SDS011;57313;47.040;15.498;2022-10-16T10:01:15;29.35;;;15.35;;
61036;SDS011;57313;47.040;15.498;2022-10-16T10:03:43;27.75;;;14.98;;
61036;SDS011;57313;47.040;15.498;2022-10-16T10:06:16;30.10;;;15.88;;
61036;SDS011;57313;47.040;15.498;2022-10-16T10:08:52;28.30;;;15.02;;
61036;SDS011;57313;47.040;15.498;2022-10-16T10:14:05;27.08;;;13.45;;
61036;SDS011;57313;47.040;15.498;2022-10-16T10:16:35;26.50;;;14.00;;
61036;SDS011;57313;47.040;15.498;2022-10-16T10:19:03;25.27;;;13.90;;
61036;SDS011;57313;47.040;15.498;2022-10-16T10:21:32;26.60;;;14.15;;
61036;SDS011;57313;47.040;15.498;2022-10-16T10:24:00;26.67;;;13.75;;
61036;SDS011;57313;47.040;15.498;2022-10-16T10:26:28;26.05;;;13.52;;
61036;SDS011;57313;47.040;15.498;2022-10-16T10:29:06;26.05;;;13.05;;
61036;SDS011;57313;47.040;15.498;2022-10-16T10:34:20;27.00;;;12.85;;
61036;SDS011;57313;47.040;15.498;2022-10-16T10:37:04;25.23;;;12.68;;
61036;SDS011;57313;47.040;15.498;2022-10-16T10:39:41;25.25;;;12.27;;
61036;SDS011;57313;47.040;15.498;2022-10-16T10:42:19;24.17;;;12.75;;
61036;SDS011;57313;47.040;15.498;2022-10-16T10:51:01;25.10;;;12.35;;
61036;SDS011;57313;47.040;15.498;2022-10-16T10:56:15;25.50;;;12.43;;
61036;SDS011;57313;47.040;15.498;2022-10-16T11:01:53;21.38;;;11.23;;
61036;SDS011;57313;47.040;15.498;2022-10-16T11:04:32;21.63;;;10.80;;
61036;SDS011;57313;47.040;15.498;2022-10-16T11:09:41;21.23;;;11.10;;
61036;SDS011;57313;47.040;15.498;2022-10-16T11:12:14;21.13;;;9.63;;
61036;SDS011;57313;47.040;15.498;2022-10-16T11:14:46;20.17;;;10.48;;
61036;SDS011;57313;47.040;15.498;2022-10-16T11:17:17;19.33;;;9.80;;
61036;SDS011;57313;47.040;15.498;2022-10-16T11:19:52;20.60;;;10.55;;
61036;SDS011;57313;47.040;15.498;2022-10-16T11:22:24;22.67;;;10.23;;
61036;SDS011;57313;47.040;15.498;2022-10-16T11:25:00;19.05;;;10.30;;
61036;SDS011;57313;47.040;15.498;2022-10-16T11:27:41;20.80;;;10.55;;
61036;SDS011;57313;47.040;15.498;2022-10-16T11:30:12;20.73;;;10.23;;
61036;SDS011;57313;47.040;15.498;2022-10-16T11:32:48;20.95;;;10.50;;
61036;SDS011;57313;47.040;15.498;2022-10-16T11:35:23;20.27;;;8.90;;
61036;SDS011;57313;47.040;15.498;2022-10-16T11:37:59;19.17;;;10.07;;
61036;SDS011;57313;47.040;15.498;2022-10-16T11:40:31;18.95;;;9.05;;
61036;SDS011;57313;47.040;15.498;2022-10-16T11:43:04;21.20;;;10.07;;
61036;SDS011;57313;47.040;15.498;2022-10-16T11:45:39;22.20;;;9.27;;
61036;SDS011;57313;47.040;15.498;2022-10-16T11:48:12;18.83;;;9.73;;
61036;SDS011;57313;47.040;15.498;2022-10-16T11:50:51;19.95;;;10.38;;
61036;SDS011;57313;47.040;15.498;2022-10-16T11:53:27;17.85;;;9.70;;
61036;SDS011;57313;47.040;15.498;2022-10-16T11:56:06;24.10;;;9.65;;
61036;SDS011;57313;47.040;15.498;2022-10-16T11:58:35;20.63;;;10.95;;
61036;SDS011;57313;47.040;15.498;2022-10-16T12:01:13;20.40;;;10.38;;
61036;SDS011;57313;47.040;15.498;2022-10-16T12:03:46;20.58;;;10.38;;
61036;SDS011;57313;47.040;15.498;2022-10-16T12:06:27;22.13;;;11.20;;
61036;SDS011;57313;47.040;15.498;2022-10-16T12:09:00;26.30;;;11.30;;
61036;SDS011;57313;47.040;15.498;2022-10-16T12:11:32;23.48;;;11.30;;
61036;SDS011;57313;47.040;15.498;2022-10-16T12:14:18;18.95;;;10.15;;
61036;SDS011;57313;47.040;15.498;2022-10-16T12:16:51;19.95;;;10.43;;
61036;SDS011;57313;47.040;15.498;2022-10-16T12:19:20;22.30;;;10.88;;
61036;SDS011;57313;47.040;15.498;2022-10-16T12:21:51;20.45;;;10.65;;
61036;SDS011;57313;47.040;15.498;2022-10-16T12:24:23;19.00;;;10.52;;
61036;SDS011;57313;47.040;15.498;2022-10-16T12:27:01;22.42;;;10.35;;
61036;SDS011;57313;47.040;15.498;2022-10-16T12:29:34;18.58;;;10.40;;
61036;SDS011;57313;47.040;15.498;2022-10-16T12:32:05;20.92;;;10.48;;
61036;SDS011;57313;47.040;15.498;2022-10-16T12:35:18;18.90;;;10.38;;
61036;SDS011;57313;47.040;15.498;2022-10-16T12:37:50;24.10;;;10.70;;
61036;SDS011;57313;47.040;15.498;2022-10-16T12:40:24;21.73;;;9.80;;
61036;SDS011;57313;47.040;15.498;2022-10-16T12:42:54;18.55;;;9.93;;
61036;SDS011;57313;47.040;15.498;2022-10-16T12:45:26;17.80;;;9.77;;
61036;SDS011;57313;47.040;15.498;2022-10-16T12:47:55;19.48;;;9.18;;
61036;SDS011;57313;47.040;15.498;2022-10-16T12:50:24;16.55;;;9.02;;
61036;SDS011;57313;47.040;15.498;2022-10-16T12:52:56;19.83;;;9.82;;
61036;SDS011;57313;47.040;15.498;2022-10-16T12:55:23;18.48;;;9.70;;
61036;SDS011;57313;47.040;15.498;2022-10-16T12:57:57;19.70;;;9.77;;
61036;SDS011;57313;47.040;15.498;2022-10-16T13:00:39;18.08;;;9.38;;
61036;SDS011;57313;47.040;15.498;2022-10-16T13:06:23;17.38;;;8.82;;
61036;SDS011;57313;47.040;15.498;2022-10-16T13:12:02;19.80;;;9.93;;
61036;SDS011;57313;47.040;15.498;2022-10-16T13:17:46;16.88;;;9.15;;
61036;SDS011;57313;47.040;15.498;2022-10-16T13:20:22;19.00;;;9.93;;
61036;SDS011;57313;47.040;15.498;2022-10-16T13:22:58;17.63;;;9.23;;
61036;SDS011;57313;47.040;15.498;2022-10-16T13:25:38;18.85;;;9.63;;
61036;SDS011;57313;47.040;15.498;2022-10-16T13:30:51;19.50;;;9.80;;
61036;SDS011;57313;47.040;15.498;2022-10-16T13:33:20;20.48;;;9.05;;
61036;SDS011;57313;47.040;15.498;2022-10-16T13:35:56;17.80;;;9.40;;
61036;SDS011;57313;47.040;15.498;2022-10-16T13:38:24;19.33;;;10.00;;
61036;SDS011;57313;47.040;15.498;2022-10-16T13:40:56;19.27;;;11.32;;
61036;SDS011;57313;47.040;15.498;2022-10-16T13:43:25;18.17;;;9.00;;
61036;SDS011;57313;47.040;15.498;2022-10-16T13:45:56;17.65;;;8.65;;
61036;SDS011;57313;47.040;15.498;2022-10-16T13:48:25;19.50;;;9.63;;
61036;SDS011;57313;47.040;15.498;2022-10-16T13:50:59;20.15;;;10.32;;
61036;SDS011;57313;47.040;15.498;2022-10-16T13:53:32;21.58;;;9.73;;
61036;SDS011;57313;47.040;15.498;2022-10-16T13:56:02;19.38;;;9.98;;
61036;SDS011;57313;47.040;15.498;2022-10-16T13:58:31;20.60;;;10.60;;
61036;SDS011;57313;47.040;15.498;2022-10-16T14:01:00;20.35;;;10.82;;
61036;SDS011;57313;47.040;15.498;2022-10-16T14:03:29;22.08;;;10.55;;
61036;SDS011;57313;47.040;15.498;2022-10-16T14:05:58;20.80;;;10.88;;
61036;SDS011;57313;47.040;15.498;2022-10-16T14:08:27;19.27;;;10.70;;
61036;SDS011;57313;47.040;15.498;2022-10-16T14:10:56;20.45;;;11.15;;
61036;SDS011;57313;47.040;15.498;2022-10-16T14:13:30;19.67;;;10.18;;
61036;SDS011;57313;47.040;15.498;2022-10-16T14:16:02;19.15;;;10.40;;
61036;SDS011;57313;47.040;15.498;2022-10-16T14:18:35;23.02;;;11.35;;
61036;SDS011;57313;47.040;15.498;2022-10-16T14:21:06;20.83;;;11.13;;
61036;SDS011;57313;47.040;15.498;2022-10-16T14:23:39;23.00;;;10.45;;
61036;SDS011;57313;47.040;15.498;2022-10-16T14:26:15;21.52;;;11.32;;
61036;SDS011;57313;47.040;15.498;2022-10-16T14:28:46;21.70;;;11.05;;
61036;SDS011;57313;47.040;15.498;2022-10-16T14:31:26;24.38;;;11.30;;
61036;SDS011;57313;47.040;15.498;2022-10-16T14:33:55;23.80;;;11.98;;
61036;SDS011;57313;47.040;15.498;2022-10-16T14:36:22;23.67;;;12.38;;
61036;SDS011;57313;47.040;15.498;2022-10-16T14:38:54;22.90;;;11.90;;
61036;SDS011;57313;47.040;15.498;2022-10-16T14:41:27;24.10;;;12.75;;
61036;SDS011;57313;47.040;15.498;2022-10-16T14:44:02;22.52;;;11.88;;
61036;SDS011;57313;47.040;15.498;2022-10-16T14:46:32;22.65;;;11.77;;
61036;SDS011;57313;47.040;15.498;2022-10-16T14:49:03;23.23;;;12.73;;
61036;SDS011;57313;47.040;15.498;2022-10-16T14:51:41;24.73;;;13.18;;
61036;SDS011;57313;47.040;15.498;2022-10-16T14:54:09;24.45;;;12.68;;
61036;SDS011;57313;47.040;15.498;2022-10-16T14:56:42;21.92;;;12.98;;
61036;SDS011;57313;47.040;15.498;2022-10-16T14:59:15;25.05;;;13.68;;
61036;SDS011;57313;47.040;15.498;2022-10-16T15:01:46;25.27;;;13.13;;
61036;SDS011;57313;47.040;15.498;2022-10-16T15:04:14;26.05;;;13.50;;
61036;SDS011;57313;47.040;15.498;2022-10-16T15:06:41;28.08;;;13.80;;
61036;SDS011;57313;47.040;15.498;2022-10-16T15:09:09;25.13;;;14.05;;
61036;SDS011;57313;47.040;15.498;2022-10-16T15:11:38;27.33;;;14.23;;
61036;SDS011;57313;47.040;15.498;2022-10-16T15:14:08;27.25;;;14.10;;